Mishawaka, IN

4:34 AM EST on February 06, 2016 (GMT -0500)
Reverewood | | Change Station
CLOSE
Current Station
Personal Weather Station
Location: Mishawaka, IN
Elevation: 735 ft
Nearby Weather Stations

Elev 735 ft 41.65 °N, 86.13 °W | Updated 12 seconds ago

Clear
Clear
22.1 °F
Feels Like 22 °F
N
0.0
Wind Variable Wind from North
Gusts 0.0 mph

Today
High -- | Low -- °F
--% Chance of Precip.
Yesterday
High -- | Low -- °F
Precip. -- in
Pressure 30.34 in
Visibility 3.0 miles
Clouds Clear
Windchill 22 °F
Dew Point 20 °F
Humidity 90%
Rainfall 0.00 in
Snow Depth Not available.
7:51 AM 6:06 PM
Waning Crescent, 6% visible
METAR KSBN 060854Z 20005KT 3SM BR CLR M07/M08 A3030 RMK AO2 SLP272 I1000 I3000 T10671078 58004
Pressure 30.34 in
Visibility 3.0 miles
Clouds Clear
Windchill 22 °F
Dew Point 20 °F
Humidity 90%
Rainfall 0.00 in
Snow Depth Not available.
7:51 AM 6:06 PM
Waning Crescent, 6% visible
METAR KSBN 060854Z 20005KT 3SM BR CLR M07/M08 A3030 RMK AO2 SLP272 I1000 I3000 T10671078 58004

10-Day Weather Forecast

Almanac

Astronomy

Feb. 06, 2016 Rise Set
Actual Time
Civil Twilight
Nautical Twilight
Astronomical Twilight
Moon
Length of Visible Light
Length of Day
Tomorrow will be .
, % of the Moon is Illuminated

Today's Extremes

State Highs State Lows

Community

WunderPhotos

Upload Photos

1,890,933 photos uploaded!

WunderBlog® & News

Nearby

Air Quality

  Air Quality AQ Index Pollutant
Not available.

Snow Depth

Station Depth Elevation

Earthquake Activity

City Distance Mag. Time & Date
Minimum magnitude displayed is 2.5.

Coastal Water Temperatures

Place Temperature

Stations

Nearby Weather Stations

Station Location Temp. Windchill Dew Point Humidity Wind Precip. Elev Updated Type
                   

Watches & Warnings

There are currently no watches in effect.